sensor_id;sensor_type;location;lat;lon;timestamp;temperature;humidity
37788;DHT22;23627;53.302;-6.362;2024-02-21T00:00:55;8.70;99.90
37788;DHT22;23627;53.302;-6.362;2024-02-21T00:03:20;8.70;99.90
37788;DHT22;23627;53.302;-6.362;2024-02-21T00:05:46;8.70;99.90
37788;DHT22;23627;53.302;-6.362;2024-02-21T00:08:12;8.70;99.90
37788;DHT22;23627;53.302;-6.362;2024-02-21T00:10:38;8.70;99.90
37788;DHT22;23627;53.302;-6.362;2024-02-21T00:13:04;8.70;99.90
37788;DHT22;23627;53.302;-6.362;2024-02-21T00:15:29;8.70;99.90
37788;DHT22;23627;53.302;-6.362;2024-02-21T00:17:59;8.70;99.90
37788;DHT22;23627;53.302;-6.362;2024-02-21T00:20:24;8.70;99.90
37788;DHT22;23627;53.302;-6.362;2024-02-21T00:22:51;8.70;99.90
37788;DHT22;23627;53.302;-6.362;2024-02-21T00:25:17;8.70;99.90
37788;DHT22;23627;53.302;-6.362;2024-02-21T00:27:43;8.70;99.90
37788;DHT22;23627;53.302;-6.362;2024-02-21T00:30:09;8.70;99.90
37788;DHT22;23627;53.302;-6.362;2024-02-21T00:32:35;8.70;99.90
37788;DHT22;23627;53.302;-6.362;2024-02-21T00:35:01;8.80;99.90
37788;DHT22;23627;53.302;-6.362;2024-02-21T00:37:27;8.70;99.90
37788;DHT22;23627;53.302;-6.362;2024-02-21T00:39:54;8.70;99.90
37788;DHT22;23627;53.302;-6.362;2024-02-21T00:42:20;8.70;99.90
37788;DHT22;23627;53.302;-6.362;2024-02-21T00:44:48;8.80;99.90
37788;DHT22;23627;53.302;-6.362;2024-02-21T00:47:14;8.80;99.90
37788;DHT22;23627;53.302;-6.362;2024-02-21T00:49:40;8.80;99.90
37788;DHT22;23627;53.302;-6.362;2024-02-21T00:52:06;8.80;99.90
37788;DHT22;23627;53.302;-6.362;2024-02-21T00:54:31;8.80;99.90
37788;DHT22;23627;53.302;-6.362;2024-02-21T00:56:57;8.80;99.90
37788;DHT22;23627;53.302;-6.362;2024-02-21T00:59:23;8.80;99.90
37788;DHT22;23627;53.302;-6.362;2024-02-21T01:01:49;8.80;99.90
37788;DHT22;23627;53.302;-6.362;2024-02-21T01:04:14;8.80;99.90
37788;DHT22;23627;53.302;-6.362;2024-02-21T01:06:40;8.80;99.90
37788;DHT22;23627;53.302;-6.362;2024-02-21T01:09:08;8.90;99.90
37788;DHT22;23627;53.302;-6.362;2024-02-21T01:11:34;8.90;99.90
37788;DHT22;23627;53.302;-6.362;2024-02-21T01:13:59;8.90;99.90
37788;DHT22;23627;53.302;-6.362;2024-02-21T01:16:26;8.90;99.90
37788;DHT22;23627;53.302;-6.362;2024-02-21T01:18:51;8.90;99.90
37788;DHT22;23627;53.302;-6.362;2024-02-21T01:21:17;8.90;99.90
37788;DHT22;23627;53.302;-6.362;2024-02-21T01:23:43;8.90;99.90
37788;DHT22;23627;53.302;-6.362;2024-02-21T01:26:09;8.90;99.90
37788;DHT22;23627;53.302;-6.362;2024-02-21T01:28:38;8.90;99.90
37788;DHT22;23627;53.302;-6.362;2024-02-21T01:31:04;8.90;99.90
37788;DHT22;23627;53.302;-6.362;2024-02-21T01:33:30;8.90;99.90
37788;DHT22;23627;53.302;-6.362;2024-02-21T01:36:03;8.90;99.90
37788;DHT22;23627;53.302;-6.362;2024-02-21T01:38:29;8.90;99.90
37788;DHT22;23627;53.302;-6.362;2024-02-21T01:40:55;9.00;99.90
37788;DHT22;23627;53.302;-6.362;2024-02-21T01:43:22;9.00;99.90
37788;DHT22;23627;53.302;-6.362;2024-02-21T01:45:53;9.00;99.90
37788;DHT22;23627;53.302;-6.362;2024-02-21T01:48:22;9.00;99.90
37788;DHT22;23627;53.302;-6.362;2024-02-21T01:50:49;9.00;99.90
37788;DHT22;23627;53.302;-6.362;2024-02-21T01:53:22;9.00;99.90
37788;DHT22;23627;53.302;-6.362;2024-02-21T01:55:48;9.00;99.90
37788;DHT22;23627;53.302;-6.362;2024-02-21T01:58:18;9.00;99.90
37788;DHT22;23627;53.302;-6.362;2024-02-21T02:00:46;9.00;99.90
37788;DHT22;23627;53.302;-6.362;2024-02-21T02:03:13;9.00;99.90
37788;DHT22;23627;53.302;-6.362;2024-02-21T02:05:49;9.00;99.90
37788;DHT22;23627;53.302;-6.362;2024-02-21T02:08:17;9.00;99.90
37788;DHT22;23627;53.302;-6.362;2024-02-21T02:10:43;9.00;99.90
37788;DHT22;23627;53.302;-6.362;2024-02-21T02:13:09;9.00;99.90
37788;DHT22;23627;53.302;-6.362;2024-02-21T02:15:42;9.00;99.90
37788;DHT22;23627;53.302;-6.362;2024-02-21T02:18:08;9.00;99.90
37788;DHT22;23627;53.302;-6.362;2024-02-21T02:20:35;9.00;99.90
37788;DHT22;23627;53.302;-6.362;2024-02-21T02:23:09;9.10;99.90
37788;DHT22;23627;53.302;-6.362;2024-02-21T02:25:39;9.10;99.90
37788;DHT22;23627;53.302;-6.362;2024-02-21T02:28:11;9.10;99.90
37788;DHT22;23627;53.302;-6.362;2024-02-21T02:30:36;9.10;99.90
37788;DHT22;23627;53.302;-6.362;2024-02-21T02:33:05;9.10;99.90
37788;DHT22;23627;53.302;-6.362;2024-02-21T02:35:32;9.10;99.90
37788;DHT22;23627;53.302;-6.362;2024-02-21T02:37:58;9.10;99.90
37788;DHT22;23627;53.302;-6.362;2024-02-21T02:40:24;9.10;99.90
37788;DHT22;23627;53.302;-6.362;2024-02-21T02:42:50;9.10;99.90
37788;DHT22;23627;53.302;-6.362;2024-02-21T02:45:17;9.20;99.90
37788;DHT22;23627;53.302;-6.362;2024-02-21T02:47:46;9.20;99.90
37788;DHT22;23627;53.302;-6.362;2024-02-21T02:50:13;9.20;99.90
37788;DHT22;23627;53.302;-6.362;2024-02-21T02:52:39;9.20;99.90
37788;DHT22;23627;53.302;-6.362;2024-02-21T02:55:05;9.20;99.90
37788;DHT22;23627;53.302;-6.362;2024-02-21T02:57:32;9.20;99.90
37788;DHT22;23627;53.302;-6.362;2024-02-21T02:59:58;9.20;99.90
37788;DHT22;23627;53.302;-6.362;2024-02-21T03:02:23;9.20;99.90
37788;DHT22;23627;53.302;-6.362;2024-02-21T03:04:49;9.20;99.90
37788;DHT22;23627;53.302;-6.362;2024-02-21T03:07:15;9.20;99.90
37788;DHT22;23627;53.302;-6.362;2024-02-21T03:09:42;9.20;99.90
37788;DHT22;23627;53.302;-6.362;2024-02-21T03:12:11;9.30;99.90
37788;DHT22;23627;53.302;-6.362;2024-02-21T03:14:36;9.30;99.90
37788;DHT22;23627;53.302;-6.362;2024-02-21T03:17:03;9.20;99.90
37788;DHT22;23627;53.302;-6.362;2024-02-21T03:19:29;9.20;99.90
37788;DHT22;23627;53.302;-6.362;2024-02-21T03:21:55;9.30;99.90
37788;DHT22;23627;53.302;-6.362;2024-02-21T03:24:21;9.20;99.90
37788;DHT22;23627;53.302;-6.362;2024-02-21T03:26:47;9.20;99.90
37788;DHT22;23627;53.302;-6.362;2024-02-21T03:29:15;9.20;99.90
37788;DHT22;23627;53.302;-6.362;2024-02-21T03:31:41;9.20;99.90
37788;DHT22;23627;53.302;-6.362;2024-02-21T03:34:07;9.20;99.90
37788;DHT22;23627;53.302;-6.362;2024-02-21T03:36:32;9.20;99.90
37788;DHT22;23627;53.302;-6.362;2024-02-21T03:38:58;9.30;99.90
37788;DHT22;23627;53.302;-6.362;2024-02-21T03:41:24;9.20;99.90
37788;DHT22;23627;53.302;-6.362;2024-02-21T03:43:49;9.20;99.90
37788;DHT22;23627;53.302;-6.362;2024-02-21T03:46:15;9.20;99.90
37788;DHT22;23627;53.302;-6.362;2024-02-21T03:48:41;9.30;99.90
37788;DHT22;23627;53.302;-6.362;2024-02-21T03:51:07;9.30;99.90
37788;DHT22;23627;53.302;-6.362;2024-02-21T03:53:33;9.30;99.90
37788;DHT22;23627;53.302;-6.362;2024-02-21T03:56:05;9.30;99.90
37788;DHT22;23627;53.302;-6.362;2024-02-21T03:58:31;9.20;99.90
37788;DHT22;23627;53.302;-6.362;2024-02-21T04:01:00;9.30;99.90
37788;DHT22;23627;53.302;-6.362;2024-02-21T04:03:27;9.30;99.90
37788;DHT22;23627;53.302;-6.362;2024-02-21T04:05:53;9.30;99.90
37788;DHT22;23627;53.302;-6.362;2024-02-21T04:08:19;9.30;99.90
37788;DHT22;23627;53.302;-6.362;2024-02-21T04:10:45;9.30;99.90
37788;DHT22;23627;53.302;-6.362;2024-02-21T04:13:10;9.30;99.90
37788;DHT22;23627;53.302;-6.362;2024-02-21T04:15:36;9.30;99.90
37788;DHT22;23627;53.302;-6.362;2024-02-21T04:18:02;9.30;99.90
37788;DHT22;23627;53.302;-6.362;2024-02-21T04:20:31;9.30;99.90
37788;DHT22;23627;53.302;-6.362;2024-02-21T04:22:58;9.30;99.90
37788;DHT22;23627;53.302;-6.362;2024-02-21T04:25:26;9.30;99.90
37788;DHT22;23627;53.302;-6.362;2024-02-21T04:27:52;9.40;99.90
37788;DHT22;23627;53.302;-6.362;2024-02-21T04:30:18;9.40;99.90
37788;DHT22;23627;53.302;-6.362;2024-02-21T04:32:43;9.30;99.90
37788;DHT22;23627;53.302;-6.362;2024-02-21T04:35:09;9.40;99.90
37788;DHT22;23627;53.302;-6.362;2024-02-21T04:37:35;9.30;99.90
37788;DHT22;23627;53.302;-6.362;2024-02-21T04:40:01;9.30;99.90
37788;DHT22;23627;53.302;-6.362;2024-02-21T04:42:27;9.40;99.90
37788;DHT22;23627;53.302;-6.362;2024-02-21T04:44:56;9.40;99.90
37788;DHT22;23627;53.302;-6.362;2024-02-21T04:47:21;9.40;99.90
37788;DHT22;23627;53.302;-6.362;2024-02-21T04:49:49;9.40;99.90
37788;DHT22;23627;53.302;-6.362;2024-02-21T04:52:15;9.40;99.90
37788;DHT22;23627;53.302;-6.362;2024-02-21T04:54:40;9.40;99.90
37788;DHT22;23627;53.302;-6.362;2024-02-21T04:57:06;9.40;99.90
37788;DHT22;23627;53.302;-6.362;2024-02-21T04:59:32;9.40;99.90
37788;DHT22;23627;53.302;-6.362;2024-02-21T05:01:58;9.50;99.90
37788;DHT22;23627;53.302;-6.362;2024-02-21T05:04:24;9.50;99.90
37788;DHT22;23627;53.302;-6.362;2024-02-21T05:06:50;9.50;99.90
37788;DHT22;23627;53.302;-6.362;2024-02-21T05:09:15;9.50;99.90
37788;DHT22;23627;53.302;-6.362;2024-02-21T05:11:41;9.50;99.90
37788;DHT22;23627;53.302;-6.362;2024-02-21T05:14:07;9.50;99.90
37788;DHT22;23627;53.302;-6.362;2024-02-21T05:16:33;9.50;99.90
37788;DHT22;23627;53.302;-6.362;2024-02-21T05:18:59;9.50;99.90
37788;DHT22;23627;53.302;-6.362;2024-02-21T05:21:25;9.60;99.90
37788;DHT22;23627;53.302;-6.362;2024-02-21T05:23:51;9.60;99.90
37788;DHT22;23627;53.302;-6.362;2024-02-21T05:26:24;9.60;99.90
37788;DHT22;23627;53.302;-6.362;2024-02-21T05:28:50;9.60;99.90
37788;DHT22;23627;53.302;-6.362;2024-02-21T05:31:18;9.70;99.90
37788;DHT22;23627;53.302;-6.362;2024-02-21T05:33:44;9.70;99.90
37788;DHT22;23627;53.302;-6.362;2024-02-21T05:36:10;9.70;99.90
37788;DHT22;23627;53.302;-6.362;2024-02-21T05:38:36;9.70;99.90
37788;DHT22;23627;53.302;-6.362;2024-02-21T05:41:03;9.70;99.90
37788;DHT22;23627;53.302;-6.362;2024-02-21T05:43:29;9.70;99.90
37788;DHT22;23627;53.302;-6.362;2024-02-21T05:45:55;9.70;99.90
37788;DHT22;23627;53.302;-6.362;2024-02-21T05:48:24;9.80;99.90
37788;DHT22;23627;53.302;-6.362;2024-02-21T05:50:50;9.80;99.90
37788;DHT22;23627;53.302;-6.362;2024-02-21T05:53:16;9.80;99.90
37788;DHT22;23627;53.302;-6.362;2024-02-21T05:55:41;9.80;99.90
37788;DHT22;23627;53.302;-6.362;2024-02-21T05:58:07;9.80;99.90
37788;DHT22;23627;53.302;-6.362;2024-02-21T06:00:37;9.80;99.90
37788;DHT22;23627;53.302;-6.362;2024-02-21T06:03:08;9.80;99.90
37788;DHT22;23627;53.302;-6.362;2024-02-21T06:05:37;9.80;99.90
37788;DHT22;23627;53.302;-6.362;2024-02-21T06:08:04;9.90;99.90
37788;DHT22;23627;53.302;-6.362;2024-02-21T06:10:34;9.90;99.90
37788;DHT22;23627;53.302;-6.362;2024-02-21T06:13:00;9.90;99.90
37788;DHT22;23627;53.302;-6.362;2024-02-21T06:15:26;9.90;99.90
37788;DHT22;23627;53.302;-6.362;2024-02-21T06:17:55;10.00;99.90
37788;DHT22;23627;53.302;-6.362;2024-02-21T06:20:20;10.00;99.90
37788;DHT22;23627;53.302;-6.362;2024-02-21T06:22:46;10.00;99.90
37788;DHT22;23627;53.302;-6.362;2024-02-21T06:25:12;10.00;99.90
37788;DHT22;23627;53.302;-6.362;2024-02-21T06:27:38;10.00;99.90
37788;DHT22;23627;53.302;-6.362;2024-02-21T06:30:04;10.10;99.90
37788;DHT22;23627;53.302;-6.362;2024-02-21T06:32:30;10.10;99.90
37788;DHT22;23627;53.302;-6.362;2024-02-21T06:34:58;10.10;99.90
37788;DHT22;23627;53.302;-6.362;2024-02-21T06:37:24;10.20;99.90
37788;DHT22;23627;53.302;-6.362;2024-02-21T06:39:50;10.20;99.90
37788;DHT22;23627;53.302;-6.362;2024-02-21T06:42:15;10.20;99.90
37788;DHT22;23627;53.302;-6.362;2024-02-21T06:44:41;10.20;99.90
37788;DHT22;23627;53.302;-6.362;2024-02-21T06:47:07;10.30;99.90
37788;DHT22;23627;53.302;-6.362;2024-02-21T06:49:36;10.30;99.90
37788;DHT22;23627;53.302;-6.362;2024-02-21T06:52:04;10.30;99.90
37788;DHT22;23627;53.302;-6.362;2024-02-21T06:54:30;10.30;99.90
37788;DHT22;23627;53.302;-6.362;2024-02-21T06:56:56;10.30;99.90
37788;DHT22;23627;53.302;-6.362;2024-02-21T06:59:22;10.30;99.90
37788;DHT22;23627;53.302;-6.362;2024-02-21T07:01:53;10.30;99.90
37788;DHT22;23627;53.302;-6.362;2024-02-21T07:04:22;10.40;99.90
37788;DHT22;23627;53.302;-6.362;2024-02-21T07:06:48;10.40;99.90
37788;DHT22;23627;53.302;-6.362;2024-02-21T07:09:14;10.40;99.90
37788;DHT22;23627;53.302;-6.362;2024-02-21T07:11:40;10.40;99.90
37788;DHT22;23627;53.302;-6.362;2024-02-21T07:14:05;10.50;99.90
37788;DHT22;23627;53.302;-6.362;2024-02-21T07:16:31;10.50;99.90
37788;DHT22;23627;53.302;-6.362;2024-02-21T07:18:58;10.50;99.90
37788;DHT22;23627;53.302;-6.362;2024-02-21T07:21:24;10.50;99.90
37788;DHT22;23627;53.302;-6.362;2024-02-21T07:23:49;10.50;99.90
37788;DHT22;23627;53.302;-6.362;2024-02-21T07:26:15;10.50;99.90
37788;DHT22;23627;53.302;-6.362;2024-02-21T07:28:41;10.50;99.90
37788;DHT22;23627;53.302;-6.362;2024-02-21T07:31:06;10.50;99.90
37788;DHT22;23627;53.302;-6.362;2024-02-21T07:33:32;10.50;99.90
37788;DHT22;23627;53.302;-6.362;2024-02-21T07:36:01;10.60;99.90
37788;DHT22;23627;53.302;-6.362;2024-02-21T07:38:27;10.60;99.90
37788;DHT22;23627;53.302;-6.362;2024-02-21T07:40:52;10.60;99.90
37788;DHT22;23627;53.302;-6.362;2024-02-21T07:43:18;10.60;99.90
37788;DHT22;23627;53.302;-6.362;2024-02-21T07:45:44;10.60;99.90
37788;DHT22;23627;53.302;-6.362;2024-02-21T07:48:09;10.60;99.90
37788;DHT22;23627;53.302;-6.362;2024-02-21T07:50:36;10.60;99.90
37788;DHT22;23627;53.302;-6.362;2024-02-21T07:53:02;10.60;99.90
37788;DHT22;23627;53.302;-6.362;2024-02-21T07:55:27;10.70;99.90
37788;DHT22;23627;53.302;-6.362;2024-02-21T07:57:53;10.70;99.90
37788;DHT22;23627;53.302;-6.362;2024-02-21T08:00:19;10.70;99.90
37788;DHT22;23627;53.302;-6.362;2024-02-21T08:02:46;10.70;99.90
37788;DHT22;23627;53.302;-6.362;2024-02-21T08:05:12;10.70;99.90
37788;DHT22;23627;53.302;-6.362;2024-02-21T08:07:38;10.70;99.90
37788;DHT22;23627;53.302;-6.362;2024-02-21T08:10:04;10.70;99.90
37788;DHT22;23627;53.302;-6.362;2024-02-21T08:12:30;10.80;99.90
37788;DHT22;23627;53.302;-6.362;2024-02-21T08:14:56;10.80;99.90
37788;DHT22;23627;53.302;-6.362;2024-02-21T08:17:21;10.80;99.90
37788;DHT22;23627;53.302;-6.362;2024-02-21T08:19:47;10.80;99.90
37788;DHT22;23627;53.302;-6.362;2024-02-21T08:22:15;10.80;99.90
37788;DHT22;23627;53.302;-6.362;2024-02-21T08:24:41;10.90;99.90
37788;DHT22;23627;53.302;-6.362;2024-02-21T08:27:07;10.90;99.90
37788;DHT22;23627;53.302;-6.362;2024-02-21T08:29:33;10.90;99.90
37788;DHT22;23627;53.302;-6.362;2024-02-21T08:31:59;11.00;99.90
37788;DHT22;23627;53.302;-6.362;2024-02-21T08:34:24;11.00;99.90
37788;DHT22;23627;53.302;-6.362;2024-02-21T08:36:50;11.00;99.90
37788;DHT22;23627;53.302;-6.362;2024-02-21T08:39:16;11.00;99.90
37788;DHT22;23627;53.302;-6.362;2024-02-21T08:41:42;11.10;99.90
37788;DHT22;23627;53.302;-6.362;2024-02-21T08:44:08;11.10;99.90
37788;DHT22;23627;53.302;-6.362;2024-02-21T08:46:33;11.10;99.90
37788;DHT22;23627;53.302;-6.362;2024-02-21T08:48:59;11.10;99.90
37788;DHT22;23627;53.302;-6.362;2024-02-21T08:51:25;11.20;99.90
37788;DHT22;23627;53.302;-6.362;2024-02-21T08:53:52;11.30;99.90
37788;DHT22;23627;53.302;-6.362;2024-02-21T08:56:19;11.30;99.90
37788;DHT22;23627;53.302;-6.362;2024-02-21T08:58:45;11.30;99.90
37788;DHT22;23627;53.302;-6.362;2024-02-21T09:01:10;11.30;99.90
37788;DHT22;23627;53.302;-6.362;2024-02-21T09:03:37;11.40;99.90
37788;DHT22;23627;53.302;-6.362;2024-02-21T09:06:07;11.40;99.90
37788;DHT22;23627;53.302;-6.362;2024-02-21T09:08:33;11.50;99.90
37788;DHT22;23627;53.302;-6.362;2024-02-21T09:11:03;11.50;99.90
37788;DHT22;23627;53.302;-6.362;2024-02-21T09:13:28;11.60;99.90
37788;DHT22;23627;53.302;-6.362;2024-02-21T09:15:55;11.60;99.90
37788;DHT22;23627;53.302;-6.362;2024-02-21T09:18:21;11.70;99.90
37788;DHT22;23627;53.302;-6.362;2024-02-21T09:20:47;11.60;99.90
37788;DHT22;23627;53.302;-6.362;2024-02-21T09:23:13;11.70;99.90
37788;DHT22;23627;53.302;-6.362;2024-02-21T09:25:39;11.70;99.90
37788;DHT22;23627;53.302;-6.362;2024-02-21T09:28:05;11.70;99.90
37788;DHT22;23627;53.302;-6.362;2024-02-21T09:30:35;11.70;99.90
37788;DHT22;23627;53.302;-6.362;2024-02-21T09:33:01;11.80;99.90
37788;DHT22;23627;53.302;-6.362;2024-02-21T09:35:28;11.80;99.90
37788;DHT22;23627;53.302;-6.362;2024-02-21T09:37:54;11.90;99.90
37788;DHT22;23627;53.302;-6.362;2024-02-21T09:40:20;12.00;99.90
37788;DHT22;23627;53.302;-6.362;2024-02-21T09:42:47;12.10;99.90
37788;DHT22;23627;53.302;-6.362;2024-02-21T09:45:21;12.10;99.90
37788;DHT22;23627;53.302;-6.362;2024-02-21T09:48:19;12.20;99.90
37788;DHT22;23627;53.302;-6.362;2024-02-21T09:50:50;12.30;99.90
37788;DHT22;23627;53.302;-6.362;2024-02-21T09:53:18;12.30;99.90
37788;DHT22;23627;53.302;-6.362;2024-02-21T09:55:45;12.40;99.90
37788;DHT22;23627;53.302;-6.362;2024-02-21T09:58:15;12.40;99.90
37788;DHT22;23627;53.302;-6.362;2024-02-21T10:00:41;12.40;99.90
37788;DHT22;23627;53.302;-6.362;2024-02-21T10:03:07;12.50;99.90
37788;DHT22;23627;53.302;-6.362;2024-02-21T10:05:36;12.50;99.90
37788;DHT22;23627;53.302;-6.362;2024-02-21T10:08:02;12.60;99.90
37788;DHT22;23627;53.302;-6.362;2024-02-21T10:10:28;12.60;99.90
37788;DHT22;23627;53.302;-6.362;2024-02-21T10:12:56;12.70;99.90
37788;DHT22;23627;53.302;-6.362;2024-02-21T10:15:23;12.70;99.90
37788;DHT22;23627;53.302;-6.362;2024-02-21T10:17:50;12.70;99.90
37788;DHT22;23627;53.302;-6.362;2024-02-21T10:20:23;12.70;99.90
37788;DHT22;23627;53.302;-6.362;2024-02-21T10:22:49;12.80;99.90
37788;DHT22;23627;53.302;-6.362;2024-02-21T10:25:15;12.80;99.90
37788;DHT22;23627;53.302;-6.362;2024-02-21T10:27:40;12.80;99.90
37788;DHT22;23627;53.302;-6.362;2024-02-21T10:30:15;12.80;99.90
37788;DHT22;23627;53.302;-6.362;2024-02-21T10:32:52;12.90;99.90
37788;DHT22;23627;53.302;-6.362;2024-02-21T10:35:31;13.00;99.90
37788;DHT22;23627;53.302;-6.362;2024-02-21T10:37:57;13.10;99.90
37788;DHT22;23627;53.302;-6.362;2024-02-21T10:40:28;13.20;99.90
37788;DHT22;23627;53.302;-6.362;2024-02-21T10:43:01;13.20;99.90
37788;DHT22;23627;53.302;-6.362;2024-02-21T10:45:30;13.20;99.90
37788;DHT22;23627;53.302;-6.362;2024-02-21T10:48:11;13.20;99.90
37788;DHT22;23627;53.302;-6.362;2024-02-21T10:56:29;13.30;99.90
37788;DHT22;23627;53.302;-6.362;2024-02-21T10:58:58;13.40;99.90
37788;DHT22;23627;53.302;-6.362;2024-02-21T11:01:26;13.40;99.90
37788;DHT22;23627;53.302;-6.362;2024-02-21T11:03:55;13.40;99.90
37788;DHT22;23627;53.302;-6.362;2024-02-21T11:06:22;13.40;99.90
37788;DHT22;23627;53.302;-6.362;2024-02-21T11:09:08;13.40;99.90
37788;DHT22;23627;53.302;-6.362;2024-02-21T11:11:39;13.30;99.90
37788;DHT22;23627;53.302;-6.362;2024-02-21T11:14:07;13.30;99.90
37788;DHT22;23627;53.302;-6.362;2024-02-21T11:16:37;13.40;99.90
37788;DHT22;23627;53.302;-6.362;2024-02-21T11:19:18;13.50;99.90
37788;DHT22;23627;53.302;-6.362;2024-02-21T11:21:45;13.50;99.90
37788;DHT22;23627;53.302;-6.362;2024-02-21T11:24:10;13.60;99.90
37788;DHT22;23627;53.302;-6.362;2024-02-21T11:26:40;13.60;99.90
37788;DHT22;23627;53.302;-6.362;2024-02-21T11:29:09;13.60;99.90
37788;DHT22;23627;53.302;-6.362;2024-02-21T11:31:40;13.60;99.90
37788;DHT22;23627;53.302;-6.362;2024-02-21T11:34:13;13.60;99.90
37788;DHT22;23627;53.302;-6.362;2024-02-21T11:36:54;13.50;99.90
37788;DHT22;23627;53.302;-6.362;2024-02-21T11:39:20;13.50;99.90
37788;DHT22;23627;53.302;-6.362;2024-02-21T11:41:48;13.40;99.90
37788;DHT22;23627;53.302;-6.362;2024-02-21T11:44:24;13.40;99.90
37788;DHT22;23627;53.302;-6.362;2024-02-21T11:46:49;13.40;99.90
37788;DHT22;23627;53.302;-6.362;2024-02-21T11:49:15;13.40;99.90
37788;DHT22;23627;53.302;-6.362;2024-02-21T11:51:42;13.30;99.90
37788;DHT22;23627;53.302;-6.362;2024-02-21T11:54:07;13.30;99.90
37788;DHT22;23627;53.302;-6.362;2024-02-21T11:56:35;13.30;99.90
37788;DHT22;23627;53.302;-6.362;2024-02-21T11:59:00;13.30;99.90
37788;DHT22;23627;53.302;-6.362;2024-02-21T12:01:27;13.20;99.90
37788;DHT22;23627;53.302;-6.362;2024-02-21T12:03:53;13.10;99.90
37788;DHT22;23627;53.302;-6.362;2024-02-21T12:06:18;13.10;99.90
37788;DHT22;23627;53.302;-6.362;2024-02-21T12:08:47;13.00;99.90
37788;DHT22;23627;53.302;-6.362;2024-02-21T12:11:21;13.00;99.90
37788;DHT22;23627;53.302;-6.362;2024-02-21T12:14:03;13.00;99.90
37788;DHT22;23627;53.302;-6.362;2024-02-21T12:16:34;13.10;99.90
37788;DHT22;23627;53.302;-6.362;2024-02-21T12:19:03;13.30;99.90
37788;DHT22;23627;53.302;-6.362;2024-02-21T12:21:35;13.40;99.90
37788;DHT22;23627;53.302;-6.362;2024-02-21T12:24:24;13.60;99.90
37788;DHT22;23627;53.302;-6.362;2024-02-21T12:26:54;13.70;99.90
37788;DHT22;23627;53.302;-6.362;2024-02-21T12:29:22;13.80;99.90
37788;DHT22;23627;53.302;-6.362;2024-02-21T12:31:50;14.00;99.90
37788;DHT22;23627;53.302;-6.362;2024-02-21T12:34:16;14.00;99.90
37788;DHT22;23627;53.302;-6.362;2024-02-21T12:36:44;14.10;99.90
37788;DHT22;23627;53.302;-6.362;2024-02-21T12:39:10;14.00;99.90
37788;DHT22;23627;53.302;-6.362;2024-02-21T12:41:37;13.90;99.90
37788;DHT22;23627;53.302;-6.362;2024-02-21T12:44:12;13.90;99.90
37788;DHT22;23627;53.302;-6.362;2024-02-21T12:46:41;13.90;99.90
37788;DHT22;23627;53.302;-6.362;2024-02-21T12:49:08;14.00;99.90
37788;DHT22;23627;53.302;-6.362;2024-02-21T12:51:34;14.00;99.90
37788;DHT22;23627;53.302;-6.362;2024-02-21T12:54:00;14.00;99.90
37788;DHT22;23627;53.302;-6.362;2024-02-21T12:56:26;14.00;99.90
37788;DHT22;23627;53.302;-6.362;2024-02-21T12:58:53;14.10;99.90
37788;DHT22;23627;53.302;-6.362;2024-02-21T13:01:19;14.10;99.90
37788;DHT22;23627;53.302;-6.362;2024-02-21T13:03:45;14.10;99.90
37788;DHT22;23627;53.302;-6.362;2024-02-21T13:06:12;14.10;99.90
37788;DHT22;23627;53.302;-6.362;2024-02-21T13:08:38;14.10;99.90
37788;DHT22;23627;53.302;-6.362;2024-02-21T13:11:04;14.10;99.90
37788;DHT22;23627;53.302;-6.362;2024-02-21T13:13:30;14.20;99.90
37788;DHT22;23627;53.302;-6.362;2024-02-21T13:15:57;14.20;99.90
37788;DHT22;23627;53.302;-6.362;2024-02-21T13:18:23;14.20;99.90
37788;DHT22;23627;53.302;-6.362;2024-02-21T13:20:49;14.20;99.90
37788;DHT22;23627;53.302;-6.362;2024-02-21T13:23:18;14.20;99.90
37788;DHT22;23627;53.302;-6.362;2024-02-21T13:25:47;14.20;99.90
37788;DHT22;23627;53.302;-6.362;2024-02-21T13:28:12;14.10;99.90
37788;DHT22;23627;53.302;-6.362;2024-02-21T13:30:40;14.00;99.90
37788;DHT22;23627;53.302;-6.362;2024-02-21T13:33:07;14.00;99.90
37788;DHT22;23627;53.302;-6.362;2024-02-21T13:35:34;14.10;99.90
37788;DHT22;23627;53.302;-6.362;2024-02-21T13:38:12;14.20;99.90
37788;DHT22;23627;53.302;-6.362;2024-02-21T13:40:39;14.20;99.90
37788;DHT22;23627;53.302;-6.362;2024-02-21T13:43:07;14.30;99.90
37788;DHT22;23627;53.302;-6.362;2024-02-21T13:45:36;14.30;99.90
37788;DHT22;23627;53.302;-6.362;2024-02-21T13:48:02;14.40;99.90
37788;DHT22;23627;53.302;-6.362;2024-02-21T13:50:30;14.50;99.90
37788;DHT22;23627;53.302;-6.362;2024-02-21T13:53:07;14.60;99.90
37788;DHT22;23627;53.302;-6.362;2024-02-21T13:55:33;14.50;99.90
37788;DHT22;23627;53.302;-6.362;2024-02-21T13:57:58;14.60;99.90
37788;DHT22;23627;53.302;-6.362;2024-02-21T14:00:24;14.80;99.90
37788;DHT22;23627;53.302;-6.362;2024-02-21T14:02:50;14.90;99.90
37788;DHT22;23627;53.302;-6.362;2024-02-21T14:05:16;15.00;99.90
37788;DHT22;23627;53.302;-6.362;2024-02-21T14:07:42;15.20;99.90
37788;DHT22;23627;53.302;-6.362;2024-02-21T14:10:08;15.20;99.90
37788;DHT22;23627;53.302;-6.362;2024-02-21T14:12:35;15.20;99.90
37788;DHT22;23627;53.302;-6.362;2024-02-21T14:15:00;15.20;99.90
37788;DHT22;23627;53.302;-6.362;2024-02-21T14:17:26;15.20;99.90
37788;DHT22;23627;53.302;-6.362;2024-02-21T14:19:52;15.10;99.90
37788;DHT22;23627;53.302;-6.362;2024-02-21T14:22:18;15.00;99.90
37788;DHT22;23627;53.302;-6.362;2024-02-21T14:24:44;14.90;99.90
37788;DHT22;23627;53.302;-6.362;2024-02-21T14:27:10;14.80;99.90
37788;DHT22;23627;53.302;-6.362;2024-02-21T14:29:36;14.70;99.90
37788;DHT22;23627;53.302;-6.362;2024-02-21T14:32:03;14.60;99.90
37788;DHT22;23627;53.302;-6.362;2024-02-21T14:34:29;14.50;99.90
37788;DHT22;23627;53.302;-6.362;2024-02-21T14:36:54;14.50;99.90
37788;DHT22;23627;53.302;-6.362;2024-02-21T14:39:20;14.50;99.90
37788;DHT22;23627;53.302;-6.362;2024-02-21T14:41:46;14.50;99.90
37788;DHT22;23627;53.302;-6.362;2024-02-21T14:44:11;14.50;99.90
37788;DHT22;23627;53.302;-6.362;2024-02-21T14:46:39;14.50;99.90
37788;DHT22;23627;53.302;-6.362;2024-02-21T14:49:05;14.50;99.90
37788;DHT22;23627;53.302;-6.362;2024-02-21T14:51:31;14.40;99.90
37788;DHT22;23627;53.302;-6.362;2024-02-21T14:53:57;14.40;99.90
37788;DHT22;23627;53.302;-6.362;2024-02-21T14:56:23;14.40;99.90
37788;DHT22;23627;53.302;-6.362;2024-02-21T14:58:49;14.40;99.90
37788;DHT22;23627;53.302;-6.362;2024-02-21T15:01:15;14.30;99.90
37788;DHT22;23627;53.302;-6.362;2024-02-21T15:03:41;14.30;99.90
37788;DHT22;23627;53.302;-6.362;2024-02-21T15:06:08;14.20;99.90
37788;DHT22;23627;53.302;-6.362;2024-02-21T15:08:34;14.10;99.90
37788;DHT22;23627;53.302;-6.362;2024-02-21T15:11:01;14.10;99.90
37788;DHT22;23627;53.302;-6.362;2024-02-21T15:13:28;14.20;99.90
37788;DHT22;23627;53.302;-6.362;2024-02-21T15:15:59;14.10;99.90
37788;DHT22;23627;53.302;-6.362;2024-02-21T15:18:27;14.10;99.90
37788;DHT22;23627;53.302;-6.362;2024-02-21T15:20:54;14.00;99.90
37788;DHT22;23627;53.302;-6.362;2024-02-21T15:23:20;13.90;99.90
37788;DHT22;23627;53.302;-6.362;2024-02-21T15:25:46;13.90;99.90
37788;DHT22;23627;53.302;-6.362;2024-02-21T15:28:12;13.90;99.90